sensor_id;sensor_type;location;lat;lon;timestamp;P1;durP1;ratioP1;P2;durP2;ratioP2
68806;SDS011;55800;54.272;18.558;2023-03-31T00:02:50;11.25;;;6.20;;
68806;SDS011;55800;54.272;18.558;2023-03-31T00:05:22;9.35;;;6.88;;
68806;SDS011;55800;54.272;18.558;2023-03-31T00:07:52;16.15;;;7.40;;
68806;SDS011;55800;54.272;18.558;2023-03-31T00:10:27;11.10;;;6.47;;
68806;SDS011;55800;54.272;18.558;2023-03-31T00:13:00;16.23;;;6.00;;
68806;SDS011;55800;54.272;18.558;2023-03-31T00:15:30;11.00;;;5.25;;
68806;SDS011;55800;54.272;18.558;2023-03-31T00:17:59;11.90;;;6.50;;
68806;SDS011;55800;54.272;18.558;2023-03-31T00:20:34;9.57;;;5.50;;
68806;SDS011;55800;54.272;18.558;2023-03-31T00:23:04;8.55;;;3.95;;
68806;SDS011;55800;54.272;18.558;2023-03-31T00:25:38;7.75;;;4.78;;
68806;SDS011;55800;54.272;18.558;2023-03-31T00:28:09;11.52;;;5.55;;
68806;SDS011;55800;54.272;18.558;2023-03-31T00:30:39;9.68;;;4.22;;
68806;SDS011;55800;54.272;18.558;2023-03-31T00:33:08;9.30;;;3.83;;
68806;SDS011;55800;54.272;18.558;2023-03-31T00:35:38;13.00;;;6.68;;
68806;SDS011;55800;54.272;18.558;2023-03-31T00:38:07;11.18;;;4.85;;
68806;SDS011;55800;54.272;18.558;2023-03-31T00:40:43;9.30;;;5.25;;
68806;SDS011;55800;54.272;18.558;2023-03-31T00:43:22;10.05;;;4.45;;
68806;SDS011;55800;54.272;18.558;2023-03-31T00:46:00;7.82;;;3.45;;
68806;SDS011;55800;54.272;18.558;2023-03-31T00:48:41;8.75;;;4.55;;
68806;SDS011;55800;54.272;18.558;2023-03-31T00:51:15;11.68;;;4.30;;
68806;SDS011;55800;54.272;18.558;2023-03-31T00:53:46;7.90;;;3.83;;
68806;SDS011;55800;54.272;18.558;2023-03-31T00:56:24;21.73;;;6.05;;
68806;SDS011;55800;54.272;18.558;2023-03-31T00:59:00;8.57;;;3.80;;
68806;SDS011;55800;54.272;18.558;2023-03-31T01:01:33;10.93;;;5.80;;
68806;SDS011;55800;54.272;18.558;2023-03-31T01:04:08;9.52;;;3.70;;
68806;SDS011;55800;54.272;18.558;2023-03-31T01:06:42;8.93;;;4.25;;
68806;SDS011;55800;54.272;18.558;2023-03-31T01:09:17;8.35;;;3.90;;
68806;SDS011;55800;54.272;18.558;2023-03-31T01:11:49;13.20;;;5.25;;
68806;SDS011;55800;54.272;18.558;2023-03-31T01:14:19;9.40;;;3.92;;
68806;SDS011;55800;54.272;18.558;2023-03-31T01:16:49;9.57;;;5.05;;
68806;SDS011;55800;54.272;18.558;2023-03-31T01:19:21;11.65;;;5.05;;
68806;SDS011;55800;54.272;18.558;2023-03-31T01:22:13;12.48;;;5.30;;
68806;SDS011;55800;54.272;18.558;2023-03-31T01:28:13;13.32;;;6.30;;
68806;SDS011;55800;54.272;18.558;2023-03-31T01:30:57;12.95;;;6.38;;
68806;SDS011;55800;54.272;18.558;2023-03-31T01:40:18;9.43;;;4.90;;
68806;SDS011;55800;54.272;18.558;2023-03-31T01:43:10;11.68;;;4.95;;
68806;SDS011;55800;54.272;18.558;2023-03-31T01:45:47;13.43;;;5.13;;
68806;SDS011;55800;54.272;18.558;2023-03-31T01:48:27;11.02;;;5.13;;
68806;SDS011;55800;54.272;18.558;2023-03-31T01:51:05;10.40;;;4.75;;
68806;SDS011;55800;54.272;18.558;2023-03-31T01:53:42;15.98;;;5.60;;
68806;SDS011;55800;54.272;18.558;2023-03-31T01:56:20;9.75;;;4.68;;
68806;SDS011;55800;54.272;18.558;2023-03-31T01:58:57;9.18;;;4.60;;
68806;SDS011;55800;54.272;18.558;2023-03-31T02:01:30;12.15;;;4.97;;
68806;SDS011;55800;54.272;18.558;2023-03-31T02:04:04;12.55;;;4.10;;
68806;SDS011;55800;54.272;18.558;2023-03-31T02:06:41;10.25;;;4.97;;
68806;SDS011;55800;54.272;18.558;2023-03-31T02:09:16;7.13;;;3.70;;
68806;SDS011;55800;54.272;18.558;2023-03-31T02:11:50;5.85;;;4.00;;
68806;SDS011;55800;54.272;18.558;2023-03-31T02:14:23;12.43;;;4.85;;
68806;SDS011;55800;54.272;18.558;2023-03-31T02:16:57;8.27;;;4.70;;
68806;SDS011;55800;54.272;18.558;2023-03-31T02:19:30;9.77;;;4.80;;
68806;SDS011;55800;54.272;18.558;2023-03-31T02:22:03;9.52;;;2.95;;
68806;SDS011;55800;54.272;18.558;2023-03-31T02:24:35;9.18;;;4.20;;
68806;SDS011;55800;54.272;18.558;2023-03-31T02:27:09;8.77;;;4.88;;
68806;SDS011;55800;54.272;18.558;2023-03-31T02:29:44;7.30;;;4.32;;
68806;SDS011;55800;54.272;18.558;2023-03-31T02:32:14;9.20;;;4.95;;
68806;SDS011;55800;54.272;18.558;2023-03-31T02:34:51;7.88;;;4.00;;
68806;SDS011;55800;54.272;18.558;2023-03-31T02:37:21;7.05;;;4.07;;
68806;SDS011;55800;54.272;18.558;2023-03-31T02:39:51;7.78;;;3.83;;
68806;SDS011;55800;54.272;18.558;2023-03-31T02:42:25;10.15;;;4.63;;
68806;SDS011;55800;54.272;18.558;2023-03-31T02:44:59;11.68;;;5.32;;
68806;SDS011;55800;54.272;18.558;2023-03-31T02:47:31;8.35;;;4.40;;
68806;SDS011;55800;54.272;18.558;2023-03-31T02:50:01;10.45;;;5.57;;
68806;SDS011;55800;54.272;18.558;2023-03-31T02:52:39;8.65;;;4.45;;
68806;SDS011;55800;54.272;18.558;2023-03-31T02:55:28;8.27;;;4.88;;
68806;SDS011;55800;54.272;18.558;2023-03-31T03:01:19;11.85;;;4.72;;
68806;SDS011;55800;54.272;18.558;2023-03-31T03:04:01;11.88;;;4.82;;
68806;SDS011;55800;54.272;18.558;2023-03-31T03:06:43;9.07;;;6.03;;
68806;SDS011;55800;54.272;18.558;2023-03-31T03:09:31;10.93;;;5.85;;
68806;SDS011;55800;54.272;18.558;2023-03-31T03:12:10;7.88;;;4.72;;
68806;SDS011;55800;54.272;18.558;2023-03-31T03:14:47;12.65;;;6.05;;
68806;SDS011;55800;54.272;18.558;2023-03-31T03:17:23;10.48;;;5.63;;
68806;SDS011;55800;54.272;18.558;2023-03-31T03:19:57;8.82;;;5.18;;
68806;SDS011;55800;54.272;18.558;2023-03-31T03:22:28;10.35;;;6.38;;
68806;SDS011;55800;54.272;18.558;2023-03-31T03:24:57;9.52;;;5.80;;
68806;SDS011;55800;54.272;18.558;2023-03-31T03:27:28;10.02;;;6.55;;
68806;SDS011;55800;54.272;18.558;2023-03-31T03:30:00;10.82;;;6.40;;
68806;SDS011;55800;54.272;18.558;2023-03-31T03:32:30;12.32;;;6.07;;
68806;SDS011;55800;54.272;18.558;2023-03-31T03:35:00;10.63;;;5.63;;
68806;SDS011;55800;54.272;18.558;2023-03-31T03:37:31;13.20;;;5.95;;
68806;SDS011;55800;54.272;18.558;2023-03-31T03:40:01;10.40;;;5.50;;
68806;SDS011;55800;54.272;18.558;2023-03-31T03:42:32;12.75;;;6.95;;
68806;SDS011;55800;54.272;18.558;2023-03-31T03:45:03;10.98;;;5.65;;
68806;SDS011;55800;54.272;18.558;2023-03-31T03:47:33;10.85;;;5.90;;
68806;SDS011;55800;54.272;18.558;2023-03-31T03:50:03;9.70;;;6.57;;
68806;SDS011;55800;54.272;18.558;2023-03-31T03:52:33;14.88;;;7.05;;
68806;SDS011;55800;54.272;18.558;2023-03-31T03:55:03;14.20;;;6.22;;
68806;SDS011;55800;54.272;18.558;2023-03-31T03:57:33;13.68;;;7.93;;
68806;SDS011;55800;54.272;18.558;2023-03-31T04:02:37;12.75;;;5.80;;
68806;SDS011;55800;54.272;18.558;2023-03-31T04:05:07;10.73;;;5.85;;
68806;SDS011;55800;54.272;18.558;2023-03-31T04:10:06;7.93;;;5.35;;
68806;SDS011;55800;54.272;18.558;2023-03-31T04:12:36;14.20;;;8.82;;
68806;SDS011;55800;54.272;18.558;2023-03-31T04:15:07;15.02;;;6.68;;
68806;SDS011;55800;54.272;18.558;2023-03-31T04:17:37;17.90;;;7.40;;
68806;SDS011;55800;54.272;18.558;2023-03-31T04:20:07;11.02;;;6.50;;
68806;SDS011;55800;54.272;18.558;2023-03-31T04:22:37;16.00;;;7.75;;
68806;SDS011;55800;54.272;18.558;2023-03-31T04:25:08;13.48;;;7.55;;
68806;SDS011;55800;54.272;18.558;2023-03-31T04:27:42;15.27;;;7.55;;
68806;SDS011;55800;54.272;18.558;2023-03-31T04:30:18;14.52;;;7.68;;
68806;SDS011;55800;54.272;18.558;2023-03-31T04:32:57;12.95;;;7.70;;
68806;SDS011;55800;54.272;18.558;2023-03-31T04:35:29;17.85;;;8.70;;
68806;SDS011;55800;54.272;18.558;2023-03-31T04:38:15;13.95;;;7.68;;
68806;SDS011;55800;54.272;18.558;2023-03-31T04:40:46;17.23;;;8.63;;
68806;SDS011;55800;54.272;18.558;2023-03-31T04:43:17;13.13;;;8.38;;
68806;SDS011;55800;54.272;18.558;2023-03-31T04:45:49;13.35;;;7.47;;
68806;SDS011;55800;54.272;18.558;2023-03-31T04:48:18;17.58;;;9.57;;
68806;SDS011;55800;54.272;18.558;2023-03-31T04:50:48;15.30;;;6.82;;
68806;SDS011;55800;54.272;18.558;2023-03-31T04:53:17;16.33;;;8.75;;
68806;SDS011;55800;54.272;18.558;2023-03-31T04:55:47;17.88;;;8.30;;
68806;SDS011;55800;54.272;18.558;2023-03-31T04:58:16;15.60;;;8.73;;
68806;SDS011;55800;54.272;18.558;2023-03-31T05:03:16;12.98;;;7.60;;
68806;SDS011;55800;54.272;18.558;2023-03-31T05:05:46;14.93;;;8.20;;
68806;SDS011;55800;54.272;18.558;2023-03-31T05:08:16;15.25;;;8.38;;
68806;SDS011;55800;54.272;18.558;2023-03-31T05:10:45;17.38;;;8.48;;
68806;SDS011;55800;54.272;18.558;2023-03-31T05:13:14;17.40;;;9.43;;
68806;SDS011;55800;54.272;18.558;2023-03-31T05:15:43;13.13;;;8.50;;
68806;SDS011;55800;54.272;18.558;2023-03-31T05:18:17;15.88;;;8.13;;
68806;SDS011;55800;54.272;18.558;2023-03-31T05:20:47;19.75;;;9.75;;
68806;SDS011;55800;54.272;18.558;2023-03-31T05:25:46;16.40;;;8.88;;
68806;SDS011;55800;54.272;18.558;2023-03-31T05:28:15;16.27;;;8.57;;
68806;SDS011;55800;54.272;18.558;2023-03-31T05:30:44;18.20;;;8.35;;
68806;SDS011;55800;54.272;18.558;2023-03-31T05:33:14;19.00;;;8.43;;
68806;SDS011;55800;54.272;18.558;2023-03-31T05:35:44;14.73;;;8.77;;
68806;SDS011;55800;54.272;18.558;2023-03-31T05:38:14;15.90;;;8.38;;
68806;SDS011;55800;54.272;18.558;2023-03-31T05:43:12;11.98;;;7.50;;
68806;SDS011;55800;54.272;18.558;2023-03-31T05:45:42;11.05;;;6.80;;
68806;SDS011;55800;54.272;18.558;2023-03-31T05:48:11;19.52;;;8.23;;
68806;SDS011;55800;54.272;18.558;2023-03-31T05:53:11;13.25;;;7.85;;
68806;SDS011;55800;54.272;18.558;2023-03-31T05:55:41;17.13;;;8.68;;
68806;SDS011;55800;54.272;18.558;2023-03-31T05:58:10;14.02;;;8.20;;
68806;SDS011;55800;54.272;18.558;2023-03-31T06:00:40;15.68;;;8.30;;
68806;SDS011;55800;54.272;18.558;2023-03-31T06:03:10;13.50;;;6.65;;
68806;SDS011;55800;54.272;18.558;2023-03-31T06:05:45;15.55;;;8.50;;
68806;SDS011;55800;54.272;18.558;2023-03-31T06:08:16;18.80;;;8.52;;
68806;SDS011;55800;54.272;18.558;2023-03-31T06:10:47;18.00;;;9.73;;
68806;SDS011;55800;54.272;18.558;2023-03-31T06:13:16;12.88;;;8.30;;
68806;SDS011;55800;54.272;18.558;2023-03-31T06:15:51;17.20;;;8.98;;
68806;SDS011;55800;54.272;18.558;2023-03-31T06:18:21;13.35;;;8.00;;
68806;SDS011;55800;54.272;18.558;2023-03-31T06:20:51;15.13;;;7.85;;
68806;SDS011;55800;54.272;18.558;2023-03-31T06:23:22;15.35;;;8.60;;
68806;SDS011;55800;54.272;18.558;2023-03-31T06:25:52;14.10;;;8.63;;
68806;SDS011;55800;54.272;18.558;2023-03-31T06:30:58;17.30;;;9.20;;
68806;SDS011;55800;54.272;18.558;2023-03-31T06:33:28;16.25;;;8.82;;
68806;SDS011;55800;54.272;18.558;2023-03-31T06:35:57;16.55;;;8.63;;
68806;SDS011;55800;54.272;18.558;2023-03-31T06:38:29;18.63;;;9.88;;
68806;SDS011;55800;54.272;18.558;2023-03-31T06:40:59;15.23;;;8.90;;
68806;SDS011;55800;54.272;18.558;2023-03-31T06:48:27;16.90;;;9.80;;
68806;SDS011;55800;54.272;18.558;2023-03-31T06:50:58;17.67;;;9.55;;
68806;SDS011;55800;54.272;18.558;2023-03-31T06:53:29;18.50;;;9.43;;
68806;SDS011;55800;54.272;18.558;2023-03-31T06:55:59;23.40;;;7.85;;
68806;SDS011;55800;54.272;18.558;2023-03-31T06:58:29;20.67;;;9.05;;
68806;SDS011;55800;54.272;18.558;2023-03-31T07:01:00;15.85;;;8.50;;
68806;SDS011;55800;54.272;18.558;2023-03-31T07:03:31;18.08;;;10.38;;
68806;SDS011;55800;54.272;18.558;2023-03-31T07:06:01;16.83;;;9.27;;
68806;SDS011;55800;54.272;18.558;2023-03-31T07:08:32;17.38;;;9.95;;
68806;SDS011;55800;54.272;18.558;2023-03-31T07:11:02;18.25;;;8.27;;
68806;SDS011;55800;54.272;18.558;2023-03-31T07:13:32;16.63;;;9.25;;
68806;SDS011;55800;54.272;18.558;2023-03-31T07:16:01;15.50;;;9.00;;
68806;SDS011;55800;54.272;18.558;2023-03-31T07:18:36;17.02;;;8.25;;
68806;SDS011;55800;54.272;18.558;2023-03-31T07:21:08;16.73;;;8.60;;
68806;SDS011;55800;54.272;18.558;2023-03-31T07:26:08;15.95;;;8.07;;
68806;SDS011;55800;54.272;18.558;2023-03-31T07:28:39;13.07;;;7.90;;
68806;SDS011;55800;54.272;18.558;2023-03-31T07:31:11;15.55;;;8.25;;
68806;SDS011;55800;54.272;18.558;2023-03-31T07:33:41;12.13;;;7.00;;
68806;SDS011;55800;54.272;18.558;2023-03-31T07:38:42;18.45;;;7.43;;
68806;SDS011;55800;54.272;18.558;2023-03-31T07:41:16;12.52;;;7.75;;
68806;SDS011;55800;54.272;18.558;2023-03-31T07:43:47;13.90;;;6.28;;
68806;SDS011;55800;54.272;18.558;2023-03-31T07:46:19;14.65;;;7.03;;
68806;SDS011;55800;54.272;18.558;2023-03-31T07:48:50;13.70;;;6.82;;
68806;SDS011;55800;54.272;18.558;2023-03-31T07:51:21;15.30;;;7.75;;
68806;SDS011;55800;54.272;18.558;2023-03-31T07:53:53;15.70;;;8.57;;
68806;SDS011;55800;54.272;18.558;2023-03-31T07:56:23;16.52;;;7.63;;
68806;SDS011;55800;54.272;18.558;2023-03-31T07:58:52;15.80;;;7.93;;
68806;SDS011;55800;54.272;18.558;2023-03-31T08:01:24;13.32;;;6.85;;
68806;SDS011;55800;54.272;18.558;2023-03-31T08:03:55;14.40;;;7.20;;
68806;SDS011;55800;54.272;18.558;2023-03-31T08:06:25;15.27;;;6.95;;
68806;SDS011;55800;54.272;18.558;2023-03-31T08:08:57;12.45;;;7.03;;
68806;SDS011;55800;54.272;18.558;2023-03-31T08:11:26;12.90;;;6.97;;
68806;SDS011;55800;54.272;18.558;2023-03-31T08:13:57;8.98;;;5.50;;
68806;SDS011;55800;54.272;18.558;2023-03-31T08:16:27;15.40;;;5.82;;
68806;SDS011;55800;54.272;18.558;2023-03-31T08:18:56;7.38;;;5.60;;
68806;SDS011;55800;54.272;18.558;2023-03-31T08:21:26;20.52;;;8.20;;
68806;SDS011;55800;54.272;18.558;2023-03-31T08:23:57;14.02;;;5.60;;
68806;SDS011;55800;54.272;18.558;2023-03-31T08:26:27;9.50;;;4.90;;
68806;SDS011;55800;54.272;18.558;2023-03-31T08:28:57;12.32;;;4.95;;
68806;SDS011;55800;54.272;18.558;2023-03-31T08:33:57;3.50;;;2.00;;
68806;SDS011;55800;54.272;18.558;2023-03-31T08:36:29;8.65;;;3.95;;
68806;SDS011;55800;54.272;18.558;2023-03-31T08:39:00;6.75;;;3.13;;
68806;SDS011;55800;54.272;18.558;2023-03-31T08:41:36;7.65;;;3.75;;
68806;SDS011;55800;54.272;18.558;2023-03-31T08:44:16;7.97;;;3.78;;
68806;SDS011;55800;54.272;18.558;2023-03-31T08:46:52;8.23;;;3.97;;
68806;SDS011;55800;54.272;18.558;2023-03-31T08:49:24;8.20;;;2.92;;
68806;SDS011;55800;54.272;18.558;2023-03-31T08:51:57;7.32;;;3.72;;
68806;SDS011;55800;54.272;18.558;2023-03-31T08:54:32;6.88;;;3.78;;
68806;SDS011;55800;54.272;18.558;2023-03-31T08:57:04;9.02;;;3.65;;
68806;SDS011;55800;54.272;18.558;2023-03-31T08:59:39;6.22;;;3.22;;
68806;SDS011;55800;54.272;18.558;2023-03-31T09:02:13;6.82;;;3.22;;
68806;SDS011;55800;54.272;18.558;2023-03-31T09:07:48;8.38;;;3.42;;
68806;SDS011;55800;54.272;18.558;2023-03-31T09:10:30;7.65;;;4.18;;
68806;SDS011;55800;54.272;18.558;2023-03-31T09:16:30;7.78;;;3.88;;
68806;SDS011;55800;54.272;18.558;2023-03-31T09:19:09;9.68;;;3.53;;
68806;SDS011;55800;54.272;18.558;2023-03-31T09:21:43;3.92;;;2.35;;
68806;SDS011;55800;54.272;18.558;2023-03-31T09:24:17;7.18;;;2.67;;
68806;SDS011;55800;54.272;18.558;2023-03-31T09:26:52;8.27;;;3.80;;
68806;SDS011;55800;54.272;18.558;2023-03-31T09:29:29;8.20;;;3.35;;
68806;SDS011;55800;54.272;18.558;2023-03-31T09:32:09;7.10;;;3.25;;
68806;SDS011;55800;54.272;18.558;2023-03-31T09:34:44;3.35;;;2.10;;
68806;SDS011;55800;54.272;18.558;2023-03-31T09:37:15;7.13;;;2.70;;
68806;SDS011;55800;54.272;18.558;2023-03-31T09:39:45;5.88;;;2.92;;
68806;SDS011;55800;54.272;18.558;2023-03-31T09:44:46;7.75;;;3.20;;
68806;SDS011;55800;54.272;18.558;2023-03-31T09:47:18;5.32;;;3.08;;
68806;SDS011;55800;54.272;18.558;2023-03-31T09:49:57;7.93;;;4.15;;
68806;SDS011;55800;54.272;18.558;2023-03-31T09:54:58;3.67;;;2.17;;
68806;SDS011;55800;54.272;18.558;2023-03-31T09:57:32;5.00;;;2.80;;
68806;SDS011;55800;54.272;18.558;2023-03-31T10:00:04;9.02;;;3.75;;
68806;SDS011;55800;54.272;18.558;2023-03-31T10:02:43;7.38;;;2.85;;
68806;SDS011;55800;54.272;18.558;2023-03-31T10:05:23;8.50;;;2.65;;
68806;SDS011;55800;54.272;18.558;2023-03-31T10:08:09;6.15;;;2.97;;
68806;SDS011;55800;54.272;18.558;2023-03-31T10:10:57;7.22;;;2.95;;
68806;SDS011;55800;54.272;18.558;2023-03-31T10:13:42;10.68;;;4.82;;
68806;SDS011;55800;54.272;18.558;2023-03-31T10:16:19;8.20;;;3.03;;
68806;SDS011;55800;54.272;18.558;2023-03-31T10:18:50;9.65;;;3.55;;
68806;SDS011;55800;54.272;18.558;2023-03-31T10:21:21;6.50;;;3.30;;
68806;SDS011;55800;54.272;18.558;2023-03-31T10:23:53;6.85;;;3.55;;
68806;SDS011;55800;54.272;18.558;2023-03-31T10:26:24;7.78;;;3.10;;
68806;SDS011;55800;54.272;18.558;2023-03-31T10:28:57;6.88;;;3.28;;
68806;SDS011;55800;54.272;18.558;2023-03-31T10:31:33;9.70;;;2.88;;
68806;SDS011;55800;54.272;18.558;2023-03-31T10:34:04;7.60;;;3.75;;
68806;SDS011;55800;54.272;18.558;2023-03-31T10:36:47;9.20;;;5.15;;
68806;SDS011;55800;54.272;18.558;2023-03-31T10:39:18;12.48;;;4.20;;
68806;SDS011;55800;54.272;18.558;2023-03-31T10:41:56;7.20;;;3.40;;
68806;SDS011;55800;54.272;18.558;2023-03-31T10:44:32;6.57;;;3.70;;
68806;SDS011;55800;54.272;18.558;2023-03-31T10:47:16;7.25;;;3.35;;
68806;SDS011;55800;54.272;18.558;2023-03-31T10:49:49;7.47;;;3.30;;
68806;SDS011;55800;54.272;18.558;2023-03-31T10:52:25;7.88;;;3.15;;
68806;SDS011;55800;54.272;18.558;2023-03-31T10:54:56;9.70;;;4.03;;
68806;SDS011;55800;54.272;18.558;2023-03-31T10:57:29;10.50;;;4.63;;
68806;SDS011;55800;54.272;18.558;2023-03-31T11:00:13;6.82;;;3.33;;
68806;SDS011;55800;54.272;18.558;2023-03-31T11:03:03;8.43;;;3.60;;
68806;SDS011;55800;54.272;18.558;2023-03-31T11:05:55;8.95;;;3.08;;
68806;SDS011;55800;54.272;18.558;2023-03-31T11:08:34;8.40;;;3.45;;
68806;SDS011;55800;54.272;18.558;2023-03-31T11:11:15;8.20;;;4.07;;
68806;SDS011;55800;54.272;18.558;2023-03-31T11:14:10;6.70;;;3.42;;
68806;SDS011;55800;54.272;18.558;2023-03-31T11:16:49;5.97;;;3.38;;
68806;SDS011;55800;54.272;18.558;2023-03-31T11:19:29;9.10;;;2.97;;
68806;SDS011;55800;54.272;18.558;2023-03-31T11:22:11;9.80;;;3.05;;
68806;SDS011;55800;54.272;18.558;2023-03-31T11:25:04;7.72;;;2.80;;
68806;SDS011;55800;54.272;18.558;2023-03-31T11:27:53;6.65;;;2.35;;
68806;SDS011;55800;54.272;18.558;2023-03-31T11:30:48;7.20;;;2.72;;
68806;SDS011;55800;54.272;18.558;2023-03-31T11:33:29;6.90;;;3.72;;
68806;SDS011;55800;54.272;18.558;2023-03-31T11:36:19;9.35;;;4.15;;
68806;SDS011;55800;54.272;18.558;2023-03-31T11:39:09;6.93;;;3.65;;
68806;SDS011;55800;54.272;18.558;2023-03-31T11:41:52;6.32;;;3.47;;
68806;SDS011;55800;54.272;18.558;2023-03-31T11:44:26;8.15;;;4.57;;
68806;SDS011;55800;54.272;18.558;2023-03-31T11:47:04;8.10;;;3.92;;
68806;SDS011;55800;54.272;18.558;2023-03-31T11:49:40;7.07;;;3.13;;
68806;SDS011;55800;54.272;18.558;2023-03-31T11:52:15;8.95;;;3.78;;
68806;SDS011;55800;54.272;18.558;2023-03-31T11:54:48;7.15;;;3.28;;
68806;SDS011;55800;54.272;18.558;2023-03-31T11:57:24;8.27;;;3.63;;
68806;SDS011;55800;54.272;18.558;2023-03-31T11:59:59;9.15;;;3.90;;
68806;SDS011;55800;54.272;18.558;2023-03-31T12:02:42;7.47;;;2.97;;
68806;SDS011;55800;54.272;18.558;2023-03-31T12:05:17;9.70;;;3.72;;
68806;SDS011;55800;54.272;18.558;2023-03-31T12:07:51;10.13;;;3.47;;
68806;SDS011;55800;54.272;18.558;2023-03-31T12:10:28;6.68;;;3.50;;
68806;SDS011;55800;54.272;18.558;2023-03-31T12:13:04;9.00;;;3.83;;
68806;SDS011;55800;54.272;18.558;2023-03-31T12:15:50;9.10;;;3.92;;
68806;SDS011;55800;54.272;18.558;2023-03-31T12:18:28;7.18;;;4.15;;
68806;SDS011;55800;54.272;18.558;2023-03-31T12:21:03;5.93;;;2.92;;
68806;SDS011;55800;54.272;18.558;2023-03-31T12:23:34;10.95;;;4.43;;
68806;SDS011;55800;54.272;18.558;2023-03-31T12:26:10;9.23;;;4.13;;
68806;SDS011;55800;54.272;18.558;2023-03-31T12:28:49;6.78;;;3.60;;
68806;SDS011;55800;54.272;18.558;2023-03-31T12:31:24;8.00;;;3.47;;
68806;SDS011;55800;54.272;18.558;2023-03-31T12:33:57;8.07;;;3.75;;
68806;SDS011;55800;54.272;18.558;2023-03-31T12:36:40;10.40;;;4.25;;
68806;SDS011;55800;54.272;18.558;2023-03-31T12:39:23;8.38;;;3.55;;
68806;SDS011;55800;54.272;18.558;2023-03-31T12:42:08;6.75;;;3.70;;
68806;SDS011;55800;54.272;18.558;2023-03-31T12:44:51;9.70;;;3.63;;
68806;SDS011;55800;54.272;18.558;2023-03-31T12:47:33;9.32;;;3.80;;
68806;SDS011;55800;54.272;18.558;2023-03-31T12:53:10;9.48;;;4.38;;
68806;SDS011;55800;54.272;18.558;2023-03-31T12:55:48;8.18;;;4.20;;
68806;SDS011;55800;54.272;18.558;2023-03-31T13:01:10;7.65;;;3.50;;
68806;SDS011;55800;54.272;18.558;2023-03-31T13:03:48;6.50;;;3.25;;
68806;SDS011;55800;54.272;18.558;2023-03-31T13:06:49;6.10;;;3.28;;
68806;SDS011;55800;54.272;18.558;2023-03-31T13:09:44;8.82;;;3.85;;
68806;SDS011;55800;54.272;18.558;2023-03-31T13:12:18;8.70;;;4.30;;
68806;SDS011;55800;54.272;18.558;2023-03-31T13:14:51;6.95;;;3.50;;
68806;SDS011;55800;54.272;18.558;2023-03-31T13:17:27;11.15;;;4.18;;
68806;SDS011;55800;54.272;18.558;2023-03-31T13:20:23;7.03;;;3.60;;
68806;SDS011;55800;54.272;18.558;2023-03-31T13:22:59;6.43;;;3.13;;
68806;SDS011;55800;54.272;18.558;2023-03-31T13:25:34;7.57;;;3.65;;
68806;SDS011;55800;54.272;18.558;2023-03-31T13:28:09;7.28;;;4.70;;
68806;SDS011;55800;54.272;18.558;2023-03-31T13:31:00;14.98;;;5.25;;
68806;SDS011;55800;54.272;18.558;2023-03-31T13:39:31;10.57;;;6.75;;
68806;SDS011;55800;54.272;18.558;2023-03-31T13:45:46;8.07;;;4.63;;
68806;SDS011;55800;54.272;18.558;2023-03-31T13:48:29;10.23;;;4.97;;
68806;SDS011;55800;54.272;18.558;2023-03-31T13:51:22;9.35;;;4.20;;
68806;SDS011;55800;54.272;18.558;2023-03-31T13:54:15;10.98;;;5.45;;
68806;SDS011;55800;54.272;18.558;2023-03-31T13:57:21;10.48;;;5.68;;
68806;SDS011;55800;54.272;18.558;2023-03-31T14:03:21;9.02;;;5.88;;
68806;SDS011;55800;54.272;18.558;2023-03-31T14:05:57;8.90;;;5.70;;
68806;SDS011;55800;54.272;18.558;2023-03-31T14:08:33;14.65;;;7.53;;
68806;SDS011;55800;54.272;18.558;2023-03-31T14:11:15;8.23;;;4.72;;
68806;SDS011;55800;54.272;18.558;2023-03-31T14:13:57;11.68;;;4.43;;
68806;SDS011;55800;54.272;18.558;2023-03-31T14:16:34;10.60;;;5.78;;
68806;SDS011;55800;54.272;18.558;2023-03-31T14:22:09;10.50;;;3.92;;
68806;SDS011;55800;54.272;18.558;2023-03-31T14:24:49;11.23;;;4.95;;
68806;SDS011;55800;54.272;18.558;2023-03-31T14:27:28;8.10;;;4.22;;
68806;SDS011;55800;54.272;18.558;2023-03-31T14:30:10;9.68;;;5.18;;
68806;SDS011;55800;54.272;18.558;2023-03-31T14:32:48;11.60;;;4.88;;
68806;SDS011;55800;54.272;18.558;2023-03-31T14:35:31;9.93;;;3.60;;
68806;SDS011;55800;54.272;18.558;2023-03-31T14:38:05;9.63;;;4.38;;
68806;SDS011;55800;54.272;18.558;2023-03-31T14:40:42;6.88;;;3.50;;
68806;SDS011;55800;54.272;18.558;2023-03-31T14:43:18;8.13;;;4.13;;
68806;SDS011;55800;54.272;18.558;2023-03-31T14:45:55;10.57;;;6.43;;
68806;SDS011;55800;54.272;18.558;2023-03-31T14:48:27;15.30;;;7.75;;
68806;SDS011;55800;54.272;18.558;2023-03-31T14:51:00;20.83;;;9.70;;
68806;SDS011;55800;54.272;18.558;2023-03-31T14:53:30;16.13;;;8.23;;
68806;SDS011;55800;54.272;18.558;2023-03-31T14:56:04;17.83;;;9.55;;
68806;SDS011;55800;54.272;18.558;2023-03-31T14:58:36;20.20;;;10.82;;
68806;SDS011;55800;54.272;18.558;2023-03-31T15:01:08;16.02;;;9.90;;
68806;SDS011;55800;54.272;18.558;2023-03-31T15:03:43;18.95;;;10.52;;
68806;SDS011;55800;54.272;18.558;2023-03-31T15:06:14;19.38;;;11.02;;
68806;SDS011;55800;54.272;18.558;2023-03-31T15:08:43;18.83;;;10.60;;
68806;SDS011;55800;54.272;18.558;2023-03-31T15:11:14;17.08;;;9.63;;
68806;SDS011;55800;54.272;18.558;2023-03-31T15:13:47;23.75;;;10.27;;
68806;SDS011;55800;54.272;18.558;2023-03-31T15:16:33;19.30;;;10.60;;
68806;SDS011;55800;54.272;18.558;2023-03-31T15:19:14;17.13;;;9.57;;
68806;SDS011;55800;54.272;18.558;2023-03-31T15:21:52;16.92;;;7.78;;
68806;SDS011;55800;54.272;18.558;2023-03-31T15:24:22;11.65;;;7.45;;
68806;SDS011;55800;54.272;18.558;2023-03-31T15:26:54;12.23;;;7.32;;
68806;SDS011;55800;54.272;18.558;2023-03-31T15:29:29;11.70;;;7.20;;
68806;SDS011;55800;54.272;18.558;2023-03-31T15:32:05;13.15;;;7.07;;
68806;SDS011;55800;54.272;18.558;2023-03-31T15:34:42;13.35;;;6.55;;
68806;SDS011;55800;54.272;18.558;2023-03-31T15:37:12;14.45;;;7.85;;
68806;SDS011;55800;54.272;18.558;2023-03-31T15:39:43;14.65;;;7.30;;
68806;SDS011;55800;54.272;18.558;2023-03-31T15:42:14;14.15;;;7.90;;
68806;SDS011;55800;54.272;18.558;2023-03-31T15:44:45;17.27;;;8.57;;
68806;SDS011;55800;54.272;18.558;2023-03-31T15:47:21;14.57;;;9.00;;
68806;SDS011;55800;54.272;18.558;2023-03-31T15:49:57;18.58;;;8.23;;
68806;SDS011;55800;54.272;18.558;2023-03-31T15:52:44;15.43;;;7.85;;
68806;SDS011;55800;54.272;18.558;2023-03-31T15:55:23;13.93;;;9.00;;
68806;SDS011;55800;54.272;18.558;2023-03-31T15:57:55;21.42;;;10.77;;
68806;SDS011;55800;54.272;18.558;2023-03-31T16:00:39;17.42;;;9.88;;
68806;SDS011;55800;54.272;18.558;2023-03-31T16:03:13;18.23;;;9.68;;
68806;SDS011;55800;54.272;18.558;2023-03-31T16:05:49;18.48;;;11.95;;
68806;SDS011;55800;54.272;18.558;2023-03-31T16:08:23;19.95;;;9.88;;
68806;SDS011;55800;54.272;18.558;2023-03-31T16:10:59;19.42;;;10.75;;
68806;SDS011;55800;54.272;18.558;2023-03-31T16:13:32;19.13;;;11.85;;
68806;SDS011;55800;54.272;18.558;2023-03-31T16:16:06;19.95;;;11.73;;
68806;SDS011;55800;54.272;18.558;2023-03-31T16:18:39;18.23;;;11.77;;
68806;SDS011;55800;54.272;18.558;2023-03-31T16:21:12;21.55;;;13.43;;
68806;SDS011;55800;54.272;18.558;2023-03-31T16:23:49;24.30;;;12.75;;
68806;SDS011;55800;54.272;18.558;2023-03-31T16:26:21;21.95;;;13.43;;
68806;SDS011;55800;54.272;18.558;2023-03-31T16:28:52;26.75;;;12.50;;